sensor_id;sensor_type;location;lat;lon;timestamp;P1;durP1;ratioP1;P2;durP2;ratioP2
52438;SDS011;73188;52.948;6.012;2023-12-20T00:03:38;26.33;;;3.15;;
52438;SDS011;73188;52.948;6.012;2023-12-20T00:14:04;49.63;;;3.90;;
52438;SDS011;73188;52.948;6.012;2023-12-20T00:24:30;40.47;;;3.72;;
52438;SDS011;73188;52.948;6.012;2023-12-20T00:34:56;32.35;;;3.20;;
52438;SDS011;73188;52.948;6.012;2023-12-20T00:45:22;39.70;;;4.30;;
52438;SDS011;73188;52.948;6.012;2023-12-20T00:55:47;36.15;;;4.03;;
52438;SDS011;73188;52.948;6.012;2023-12-20T01:06:13;45.08;;;3.90;;
52438;SDS011;73188;52.948;6.012;2023-12-20T01:16:40;44.15;;;5.00;;
52438;SDS011;73188;52.948;6.012;2023-12-20T01:27:06;45.05;;;4.97;;
52438;SDS011;73188;52.948;6.012;2023-12-20T01:37:32;34.67;;;3.60;;
52438;SDS011;73188;52.948;6.012;2023-12-20T01:47:58;50.30;;;4.45;;
52438;SDS011;73188;52.948;6.012;2023-12-20T01:58:25;54.38;;;4.97;;
52438;SDS011;73188;52.948;6.012;2023-12-20T02:08:51;44.55;;;4.45;;
52438;SDS011;73188;52.948;6.012;2023-12-20T02:19:17;54.20;;;5.05;;
52438;SDS011;73188;52.948;6.012;2023-12-20T02:29:46;53.92;;;5.07;;
52438;SDS011;73188;52.948;6.012;2023-12-20T02:40:13;51.35;;;5.35;;
52438;SDS011;73188;52.948;6.012;2023-12-20T02:50:40;40.22;;;4.25;;
52438;SDS011;73188;52.948;6.012;2023-12-20T03:01:06;61.58;;;5.50;;
52438;SDS011;73188;52.948;6.012;2023-12-20T03:11:32;46.85;;;6.13;;
52438;SDS011;73188;52.948;6.012;2023-12-20T03:21:57;54.83;;;4.82;;
52438;SDS011;73188;52.948;6.012;2023-12-20T03:32:25;39.63;;;4.75;;
52438;SDS011;73188;52.948;6.012;2023-12-20T03:42:51;39.85;;;5.03;;
52438;SDS011;73188;52.948;6.012;2023-12-20T03:53:17;36.55;;;4.72;;
52438;SDS011;73188;52.948;6.012;2023-12-20T04:03:43;50.03;;;4.90;;
52438;SDS011;73188;52.948;6.012;2023-12-20T04:14:09;49.03;;;5.70;;
52438;SDS011;73188;52.948;6.012;2023-12-20T04:24:35;39.70;;;4.90;;
52438;SDS011;73188;52.948;6.012;2023-12-20T04:35:01;35.13;;;5.30;;
52438;SDS011;73188;52.948;6.012;2023-12-20T04:45:27;50.60;;;4.93;;
52438;SDS011;73188;52.948;6.012;2023-12-20T04:55:52;50.50;;;5.65;;
52438;SDS011;73188;52.948;6.012;2023-12-20T05:06:18;35.17;;;5.30;;
52438;SDS011;73188;52.948;6.012;2023-12-20T05:16:44;48.22;;;5.70;;
52438;SDS011;73188;52.948;6.012;2023-12-20T05:27:10;44.00;;;6.15;;
52438;SDS011;73188;52.948;6.012;2023-12-20T05:37:36;49.72;;;5.18;;
52438;SDS011;73188;52.948;6.012;2023-12-20T05:48:02;41.08;;;5.22;;
52438;SDS011;73188;52.948;6.012;2023-12-20T05:58:29;46.97;;;5.57;;
52438;SDS011;73188;52.948;6.012;2023-12-20T06:08:54;42.90;;;4.75;;
52438;SDS011;73188;52.948;6.012;2023-12-20T06:19:20;37.83;;;5.13;;
52438;SDS011;73188;52.948;6.012;2023-12-20T06:29:46;34.75;;;5.05;;
52438;SDS011;73188;52.948;6.012;2023-12-20T06:40:12;39.70;;;6.13;;
52438;SDS011;73188;52.948;6.012;2023-12-20T06:50:38;36.72;;;4.32;;
52438;SDS011;73188;52.948;6.012;2023-12-20T07:01:05;48.40;;;5.75;;
52438;SDS011;73188;52.948;6.012;2023-12-20T07:11:36;37.78;;;4.50;;
52438;SDS011;73188;52.948;6.012;2023-12-20T07:22:02;44.17;;;5.55;;
52438;SDS011;73188;52.948;6.012;2023-12-20T07:32:29;42.00;;;5.20;;
52438;SDS011;73188;52.948;6.012;2023-12-20T07:42:54;49.38;;;5.30;;
52438;SDS011;73188;52.948;6.012;2023-12-20T07:53:20;53.72;;;6.07;;
52438;SDS011;73188;52.948;6.012;2023-12-20T08:03:47;41.70;;;5.13;;
52438;SDS011;73188;52.948;6.012;2023-12-20T08:14:15;43.00;;;5.25;;
52438;SDS011;73188;52.948;6.012;2023-12-20T08:24:41;34.08;;;4.70;;
52438;SDS011;73188;52.948;6.012;2023-12-20T08:35:07;37.30;;;5.97;;
52438;SDS011;73188;52.948;6.012;2023-12-20T08:45:33;44.90;;;5.28;;
52438;SDS011;73188;52.948;6.012;2023-12-20T08:55:59;42.70;;;5.60;;
52438;SDS011;73188;52.948;6.012;2023-12-20T09:06:26;42.25;;;4.80;;
52438;SDS011;73188;52.948;6.012;2023-12-20T09:16:52;44.05;;;5.15;;
52438;SDS011;73188;52.948;6.012;2023-12-20T09:27:20;43.95;;;6.32;;
52438;SDS011;73188;52.948;6.012;2023-12-20T09:37:46;17.83;;;2.55;;
52438;SDS011;73188;52.948;6.012;2023-12-20T09:48:12;17.90;;;2.50;;
52438;SDS011;73188;52.948;6.012;2023-12-20T09:58:41;15.52;;;2.30;;
52438;SDS011;73188;52.948;6.012;2023-12-20T10:09:07;18.67;;;2.30;;
52438;SDS011;73188;52.948;6.012;2023-12-20T10:19:35;26.20;;;2.35;;
52438;SDS011;73188;52.948;6.012;2023-12-20T10:30:02;20.75;;;2.78;;
52438;SDS011;73188;52.948;6.012;2023-12-20T10:40:28;23.40;;;3.28;;
52438;SDS011;73188;52.948;6.012;2023-12-20T10:51:01;22.67;;;2.42;;
52438;SDS011;73188;52.948;6.012;2023-12-20T11:01:29;25.55;;;2.42;;
52438;SDS011;73188;52.948;6.012;2023-12-20T11:12:05;23.45;;;2.42;;
52438;SDS011;73188;52.948;6.012;2023-12-20T11:22:39;21.92;;;2.88;;
52438;SDS011;73188;52.948;6.012;2023-12-20T11:33:25;25.48;;;3.25;;
52438;SDS011;73188;52.948;6.012;2023-12-20T11:43:52;24.08;;;2.60;;
52438;SDS011;73188;52.948;6.012;2023-12-20T11:54:19;29.05;;;3.28;;
52438;SDS011;73188;52.948;6.012;2023-12-20T12:04:45;17.98;;;2.47;;
52438;SDS011;73188;52.948;6.012;2023-12-20T12:15:15;15.65;;;1.85;;
52438;SDS011;73188;52.948;6.012;2023-12-20T12:25:41;18.42;;;2.20;;
52438;SDS011;73188;52.948;6.012;2023-12-20T12:36:07;17.17;;;2.55;;
52438;SDS011;73188;52.948;6.012;2023-12-20T12:46:33;20.48;;;2.65;;
52438;SDS011;73188;52.948;6.012;2023-12-20T12:56:59;15.90;;;2.22;;
52438;SDS011;73188;52.948;6.012;2023-12-20T13:07:25;20.42;;;2.22;;
52438;SDS011;73188;52.948;6.012;2023-12-20T13:17:51;14.90;;;1.98;;
52438;SDS011;73188;52.948;6.012;2023-12-20T13:28:16;12.40;;;1.95;;
52438;SDS011;73188;52.948;6.012;2023-12-20T13:38:42;22.98;;;2.13;;
52438;SDS011;73188;52.948;6.012;2023-12-20T13:49:08;20.45;;;2.60;;
52438;SDS011;73188;52.948;6.012;2023-12-20T13:59:34;15.65;;;1.80;;
52438;SDS011;73188;52.948;6.012;2023-12-20T14:10:00;16.17;;;1.80;;
52438;SDS011;73188;52.948;6.012;2023-12-20T14:20:26;16.30;;;2.35;;
52438;SDS011;73188;52.948;6.012;2023-12-20T14:30:52;20.73;;;2.65;;
52438;SDS011;73188;52.948;6.012;2023-12-20T14:41:18;29.48;;;4.30;;
52438;SDS011;73188;52.948;6.012;2023-12-20T14:51:44;33.17;;;4.75;;
52438;SDS011;73188;52.948;6.012;2023-12-20T15:02:12;39.47;;;4.30;;
52438;SDS011;73188;52.948;6.012;2023-12-20T15:12:38;39.45;;;4.50;;
52438;SDS011;73188;52.948;6.012;2023-12-20T15:23:04;40.28;;;4.68;;
52438;SDS011;73188;52.948;6.012;2023-12-20T15:33:32;38.28;;;4.70;;
52438;SDS011;73188;52.948;6.012;2023-12-20T15:43:57;31.60;;;4.10;;
52438;SDS011;73188;52.948;6.012;2023-12-20T15:54:23;33.15;;;5.90;;
52438;SDS011;73188;52.948;6.012;2023-12-20T16:04:50;44.70;;;4.93;;
52438;SDS011;73188;52.948;6.012;2023-12-20T16:15:15;33.53;;;4.57;;
52438;SDS011;73188;52.948;6.012;2023-12-20T16:25:42;33.42;;;4.82;;
52438;SDS011;73188;52.948;6.012;2023-12-20T16:36:08;35.28;;;4.32;;
52438;SDS011;73188;52.948;6.012;2023-12-20T16:46:34;36.13;;;4.38;;
52438;SDS011;73188;52.948;6.012;2023-12-20T16:57:01;30.73;;;3.75;;
52438;SDS011;73188;52.948;6.012;2023-12-20T17:07:26;41.03;;;6.22;;
52438;SDS011;73188;52.948;6.012;2023-12-20T17:17:52;31.88;;;6.75;;
52438;SDS011;73188;52.948;6.012;2023-12-20T17:28:18;32.50;;;5.30;;
52438;SDS011;73188;52.948;6.012;2023-12-20T17:38:44;21.15;;;5.07;;
52438;SDS011;73188;52.948;6.012;2023-12-20T17:49:10;18.00;;;5.15;;
52438;SDS011;73188;52.948;6.012;2023-12-20T17:59:35;10.90;;;5.35;;
52438;SDS011;73188;52.948;6.012;2023-12-20T18:10:03;16.38;;;5.80;;
52438;SDS011;73188;52.948;6.012;2023-12-20T18:20:30;13.63;;;5.50;;
52438;SDS011;73188;52.948;6.012;2023-12-20T18:30:56;15.57;;;4.10;;
52438;SDS011;73188;52.948;6.012;2023-12-20T18:41:23;23.38;;;5.57;;
52438;SDS011;73188;52.948;6.012;2023-12-20T18:51:48;19.40;;;4.53;;
52438;SDS011;73188;52.948;6.012;2023-12-20T19:02:14;16.90;;;4.70;;
52438;SDS011;73188;52.948;6.012;2023-12-20T19:12:40;23.05;;;5.45;;
52438;SDS011;73188;52.948;6.012;2023-12-20T19:23:07;19.42;;;4.20;;
52438;SDS011;73188;52.948;6.012;2023-12-20T19:33:36;19.45;;;4.40;;
52438;SDS011;73188;52.948;6.012;2023-12-20T19:44:03;37.78;;;5.32;;
52438;SDS011;73188;52.948;6.012;2023-12-20T19:54:31;28.15;;;4.55;;
52438;SDS011;73188;52.948;6.012;2023-12-20T20:04:57;22.27;;;4.00;;
52438;SDS011;73188;52.948;6.012;2023-12-20T20:15:23;29.42;;;5.15;;
52438;SDS011;73188;52.948;6.012;2023-12-20T20:25:49;17.70;;;5.15;;
52438;SDS011;73188;52.948;6.012;2023-12-20T20:36:15;31.13;;;5.57;;
52438;SDS011;73188;52.948;6.012;2023-12-20T20:46:41;39.42;;;5.50;;
52438;SDS011;73188;52.948;6.012;2023-12-20T20:57:09;26.52;;;5.32;;
52438;SDS011;73188;52.948;6.012;2023-12-20T21:07:35;42.85;;;6.80;;
52438;SDS011;73188;52.948;6.012;2023-12-20T21:18:01;41.88;;;7.22;;
52438;SDS011;73188;52.948;6.012;2023-12-20T21:28:27;76.95;;;24.23;;
52438;SDS011;73188;52.948;6.012;2023-12-20T21:38:53;51.38;;;7.93;;
52438;SDS011;73188;52.948;6.012;2023-12-20T21:49:18;53.88;;;6.60;;
52438;SDS011;73188;52.948;6.012;2023-12-20T21:59:44;54.72;;;6.45;;
52438;SDS011;73188;52.948;6.012;2023-12-20T22:10:10;53.53;;;6.55;;
52438;SDS011;73188;52.948;6.012;2023-12-20T22:20:36;43.80;;;6.15;;
52438;SDS011;73188;52.948;6.012;2023-12-20T22:31:04;46.70;;;6.40;;
52438;SDS011;73188;52.948;6.012;2023-12-20T22:41:31;49.70;;;8.20;;
52438;SDS011;73188;52.948;6.012;2023-12-20T22:51:57;62.88;;;9.57;;
52438;SDS011;73188;52.948;6.012;2023-12-20T23:02:23;45.40;;;7.22;;
52438;SDS011;73188;52.948;6.012;2023-12-20T23:12:50;47.30;;;6.35;;
52438;SDS011;73188;52.948;6.012;2023-12-20T23:23:16;52.35;;;6.60;;
52438;SDS011;73188;52.948;6.012;2023-12-20T23:33:42;50.88;;;6.28;;
52438;SDS011;73188;52.948;6.012;2023-12-20T23:44:10;52.08;;;6.38;;
52438;SDS011;73188;52.948;6.012;2023-12-20T23:54:36;46.80;;;6.93;;
